Time;durP1;ratioP1;P1;durP2;ratioP2;P2;SDS_P1;SDS_P2;PMS_P1;PMS_P2;Temp;Humidity;BMP_temperature;BMP_pressure;BME280_temperature;BME280_humidity;BME280_pressure;Samples;Min_cycle;Max_cycle;Signal;HPM_P1;HPM_P2
2022/05/30 00:02:10;;;;;;;4.63;2.13;;;8.60;99.90;;;;;;5071704;28;20477;-69
2022/05/30 00:04:37;;;;;;;7.45;2.13;;;8.60;99.90;;;;;;5071915;28;20051;-70
2022/05/30 00:07:05;;;;;;;6.13;2.40;;;8.60;99.90;;;;;;5071696;28;20045;-70
2022/05/30 00:09:31;;;;;;;5.53;2.30;;;8.60;99.90;;;;;;5071724;28;20097;-69
2022/05/30 00:11:57;;;;;;;9.60;2.50;;;8.50;99.90;;;;;;5070180;28;20068;-69
2022/05/30 00:14:23;;;;;;;6.18;2.15;;;8.50;99.90;;;;;;5070368;28;20079;-70
2022/05/30 00:16:48;;;;;;;6.25;2.30;;;8.40;99.90;;;;;;5071753;28;20037;-70
2022/05/30 00:19:14;;;;;;;11.95;2.45;;;8.40;99.90;;;;;;5071649;28;20068;-70
2022/05/30 00:21:39;;;;;;;6.50;2.95;;;8.40;99.90;;;;;;5071283;28;20497;-70
2022/05/30 00:24:05;;;;;;;5.75;2.55;;;8.30;99.90;;;;;;5070535;28;20044;-70
2022/05/30 00:26:31;;;;;;;12.13;3.83;;;8.30;99.90;;;;;;5070173;28;20049;-70
2022/05/30 00:28:56;;;;;;;10.35;2.75;;;8.30;99.90;;;;;;5070198;28;20137;-70
2022/05/30 00:31:22;;;;;;;8.02;2.35;;;8.30;99.90;;;;;;5071274;28;20091;-69
2022/05/30 00:33:48;;;;;;;9.48;3.00;;;8.30;99.90;;;;;;5071279;28;20032;-69
2022/05/30 00:36:14;;;;;;;8.65;3.33;;;8.30;99.90;;;;;;5075421;28;20502;-69
2022/05/30 00:38:39;;;;;;;10.95;2.35;;;8.30;99.90;;;;;;5075652;28;20047;-69
2022/05/30 00:41:06;;;;;;;8.60;3.55;;;8.30;99.90;;;;;;5073519;28;20040;-69
2022/05/30 00:43:34;;;;;;;9.95;2.88;;;8.30;99.90;;;;;;5075520;28;20044;-69
2022/05/30 00:46:02;;;;;;;7.82;2.83;;;8.20;99.90;;;;;;5074037;28;20048;-69
2022/05/30 00:48:35;;;;;;;6.57;2.33;;;8.20;99.90;;;;;;5075231;28;20044;-69
2022/05/30 00:51:08;;;;;;;5.57;2.28;;;8.20;99.90;;;;;;5073673;28;20046;-69
2022/05/30 00:53:34;;;;;;;6.28;2.35;;;8.10;99.90;;;;;;5073861;28;20049;-69
2022/05/30 00:56:03;;;;;;;5.05;2.60;;;8.10;99.90;;;;;;5075266;28;20124;-69
2022/05/30 00:58:32;;;;;;;11.75;2.95;;;8.10;99.90;;;;;;5073741;28;20498;-69
2022/05/30 01:00:59;;;;;;;8.85;2.65;;;8.10;99.90;;;;;;5073599;28;20044;-69
2022/05/30 01:08:53;;;;;;;10.30;3.92;;;8.00;99.90;;;;;;5073434;28;20052;-69
2022/05/30 01:11:19;;;;;;;10.18;2.38;;;7.90;99.90;;;;;;5074534;28;20112;-69
2022/05/30 01:13:45;;;;;;;6.88;2.10;;;8.00;99.90;;;;;;5074702;28;20067;-69
2022/05/30 01:16:10;;;;;;;7.97;2.33;;;8.00;99.90;;;;;;5073651;28;20125;-69
2022/05/30 01:18:42;;;;;;;8.98;2.67;;;8.00;99.90;;;;;;5074536;28;20044;-70
2022/05/30 01:21:44;;;;;;;8.23;2.92;;;8.00;99.90;;;;;;5074249;28;20582;-70
2022/05/30 01:24:31;;;;;;;6.60;2.67;;;8.00;99.90;;;;;;5073281;28;20739;-69
2022/05/30 01:27:06;;;;;;;9.98;2.72;;;8.00;99.90;;;;;;5074334;28;20079;-70
2022/05/30 01:29:42;;;;;;;9.45;2.63;;;7.90;99.90;;;;;;5073062;28;20044;-69
2022/05/30 01:32:07;;;;;;;7.88;3.28;;;7.90;99.90;;;;;;5074347;28;20040;-69
2022/05/30 01:34:33;;;;;;;15.93;4.38;;;7.90;99.90;;;;;;5073107;28;20544;-69
2022/05/30 01:36:59;;;;;;;10.07;3.05;;;7.90;99.90;;;;;;5074361;28;20035;-69
2022/05/30 01:39:25;;;;;;;7.05;2.50;;;7.90;99.90;;;;;;5073998;28;20063;-69
2022/05/30 01:41:50;;;;;;;8.20;3.15;;;7.90;99.90;;;;;;5074126;28;20037;-69
2022/05/30 01:44:16;;;;;;;6.35;2.60;;;8.00;99.90;;;;;;5072669;28;20087;-69
2022/05/30 01:46:42;;;;;;;8.90;2.80;;;8.10;99.90;;;;;;5072980;28;20040;-69
2022/05/30 01:49:08;;;;;;;8.68;2.53;;;8.20;99.90;;;;;;5072866;28;20043;-70
2022/05/30 01:51:34;;;;;;;6.28;2.63;;;8.30;99.90;;;;;;5073652;28;20032;-69
2022/05/30 01:53:59;;;;;;;11.07;2.80;;;8.30;99.90;;;;;;5072603;28;20078;-69
2022/05/30 01:56:25;;;;;;;5.38;3.05;;;8.30;99.90;;;;;;5072684;28;20048;-69
2022/05/30 01:58:50;;;;;;;8.18;2.47;;;8.30;99.90;;;;;;5074108;28;20453;-69
2022/05/30 02:01:22;;;;;;;5.82;2.55;;;8.20;99.90;;;;;;5073644;28;20035;-69
2022/05/30 02:03:51;;;;;;;7.13;3.50;;;8.20;99.90;;;;;;5072631;28;20048;-69
2022/05/30 02:06:19;;;;;;;5.55;2.55;;;8.20;99.90;;;;;;5072796;28;20044;-70
2022/05/30 02:08:45;;;;;;;6.70;2.17;;;8.20;99.90;;;;;;5073532;28;20097;-70
2022/05/30 02:11:11;;;;;;;5.78;2.78;;;8.30;99.90;;;;;;5073551;28;20504;-69
2022/05/30 02:13:37;;;;;;;5.60;2.45;;;8.10;99.90;;;;;;5073873;28;20072;-69
2022/05/30 02:18:56;;;;;;;4.47;2.30;;;8.10;99.90;;;;;;5073496;28;20119;-69
2022/05/30 02:21:21;;;;;;;6.70;1.98;;;8.10;99.90;;;;;;5071810;28;20052;-69
2022/05/30 02:23:47;;;;;;;6.28;2.40;;;8.00;99.90;;;;;;5073626;28;20520;-69
2022/05/30 02:26:12;;;;;;;5.93;2.28;;;8.00;99.90;;;;;;5073310;28;20040;-69
2022/05/30 02:28:38;;;;;;;5.63;2.50;;;7.90;99.90;;;;;;5073349;28;20040;-69
2022/05/30 02:31:04;;;;;;;7.13;2.25;;;7.90;99.90;;;;;;5072995;28;20045;-69
2022/05/30 02:39:00;;;;;;;4.45;1.83;;;7.90;99.90;;;;;;5073222;28;20052;-69
2022/05/30 02:41:26;;;;;;;4.43;2.45;;;7.90;99.90;;;;;;5071553;28;20406;-69
2022/05/30 02:43:51;;;;;;;4.30;1.98;;;7.90;99.90;;;;;;5071718;28;20059;-69
2022/05/30 02:46:17;;;;;;;4.95;2.03;;;7.90;99.90;;;;;;5055061;28;20194;-69
2022/05/30 02:48:43;;;;;;;7.97;2.47;;;7.90;99.90;;;;;;5072796;28;20494;-69
2022/05/30 02:51:09;;;;;;;4.95;2.10;;;7.90;99.90;;;;;;5071249;28;20064;-69
2022/05/30 02:53:35;;;;;;;6.30;1.98;;;7.90;99.90;;;;;;5072858;28;20080;-69
2022/05/30 02:56:02;;;;;;;4.20;2.20;;;7.90;99.90;;;;;;5070929;28;20079;-69
2022/05/30 02:58:27;;;;;;;6.60;2.38;;;7.90;99.90;;;;;;5072458;28;20041;-69
2022/05/30 03:00:53;;;;;;;4.32;2.30;;;7.90;99.90;;;;;;5071329;28;20185;-69
2022/05/30 03:03:19;;;;;;;7.35;2.53;;;7.80;99.90;;;;;;5072759;28;20494;-69
2022/05/30 03:05:45;;;;;;;4.15;2.05;;;7.80;99.90;;;;;;5071333;28;20032;-69
2022/05/30 03:08:11;;;;;;;7.55;2.55;;;7.90;99.90;;;;;;5072532;28;20051;-69
2022/05/30 03:10:37;;;;;;;5.95;2.50;;;7.80;99.90;;;;;;5072123;28;20032;-69
2022/05/30 03:13:03;;;;;;;5.80;2.50;;;7.80;99.90;;;;;;5072391;28;20409;-69
2022/05/30 03:15:29;;;;;;;8.75;2.83;;;7.70;99.90;;;;;;5072360;28;20121;-69
2022/05/30 03:17:54;;;;;;;3.35;2.50;;;7.70;99.90;;;;;;5072540;28;20476;-69
2022/05/30 03:20:20;;;;;;;5.20;3.25;;;7.70;99.90;;;;;;5072129;28;20048;-69
2022/05/30 03:22:47;;;;;;;11.00;2.88;;;7.80;99.90;;;;;;5071265;28;20037;-69
2022/05/30 03:25:13;;;;;;;7.57;3.17;;;7.70;99.90;;;;;;5072322;28;20040;-69
2022/05/30 03:27:39;;;;;;;5.32;2.55;;;7.80;99.90;;;;;;5068969;28;20044;-69
2022/05/30 03:30:06;;;;;;;8.57;3.40;;;7.80;99.90;;;;;;5071628;28;20028;-69
2022/05/30 03:32:31;;;;;;;4.22;2.67;;;7.70;99.90;;;;;;5071924;28;20036;-69
2022/05/30 03:34:57;;;;;;;6.95;2.70;;;7.70;99.90;;;;;;5070875;28;20387;-69
2022/05/30 03:37:22;;;;;;;7.22;2.90;;;7.70;99.90;;;;;;5072006;28;20040;-69
2022/05/30 03:39:48;;;;;;;3.83;2.40;;;7.70;99.90;;;;;;5071956;28;20113;-69
2022/05/30 03:42:14;;;;;;;5.00;2.90;;;7.60;99.90;;;;;;5071828;28;20048;-70
2022/05/30 03:44:43;;;;;;;3.65;2.70;;;7.60;99.90;;;;;;5071982;28;20506;-69
2022/05/30 03:47:09;;;;;;;6.05;2.40;;;7.60;99.90;;;;;;5070784;28;20507;-69
2022/05/30 03:49:35;;;;;;;7.47;3.13;;;7.60;99.90;;;;;;5070550;28;20498;-69
2022/05/30 03:52:01;;;;;;;8.88;2.90;;;7.60;99.90;;;;;;5071713;28;20115;-69
2022/05/30 03:54:26;;;;;;;5.93;2.67;;;7.60;99.90;;;;;;5071875;28;20041;-69
2022/05/30 03:56:52;;;;;;;5.53;2.40;;;7.60;99.90;;;;;;5070737;28;20102;-69
2022/05/30 03:59:18;;;;;;;5.07;2.50;;;7.60;99.90;;;;;;5071987;28;20071;-69
2022/05/30 04:01:44;;;;;;;4.03;2.42;;;7.60;99.90;;;;;;5071455;28;20044;-69
2022/05/30 04:04:10;;;;;;;5.88;2.85;;;7.60;99.90;;;;;;5071750;28;20116;-69
2022/05/30 04:06:36;;;;;;;6.13;2.60;;;7.60;99.90;;;;;;5070428;28;20533;-70
2022/05/30 04:09:02;;;;;;;10.30;2.65;;;7.60;99.90;;;;;;5070109;28;20072;-69
2022/05/30 04:11:28;;;;;;;7.40;2.42;;;7.60;99.90;;;;;;5071312;28;20037;-69
2022/05/30 04:13:54;;;;;;;5.53;2.70;;;7.70;99.90;;;;;;5071627;28;20068;-69
2022/05/30 04:16:19;;;;;;;5.25;2.80;;;7.70;99.90;;;;;;5070681;28;20544;-69
2022/05/30 04:18:45;;;;;;;6.38;3.00;;;7.80;99.90;;;;;;5071610;28;20044;-69
2022/05/30 04:21:11;;;;;;;5.93;2.15;;;7.80;99.90;;;;;;5071197;28;20070;-69
2022/05/30 04:23:40;;;;;;;6.15;2.95;;;7.80;99.90;;;;;;5070386;28;20048;-69
2022/05/30 04:26:09;;;;;;;6.38;2.63;;;7.80;99.90;;;;;;5070181;28;20556;-69
2022/05/30 04:28:35;;;;;;;5.93;2.97;;;7.80;99.90;;;;;;5070125;28;20059;-69
2022/05/30 04:31:06;;;;;;;8.90;3.05;;;7.90;99.90;;;;;;5071306;28;20554;-69
2022/05/30 04:33:33;;;;;;;9.25;2.60;;;8.00;99.90;;;;;;5070191;28;20040;-69
2022/05/30 04:35:59;;;;;;;6.85;2.72;;;8.00;99.90;;;;;;5070387;28;20052;-69
2022/05/30 04:38:24;;;;;;;6.32;2.75;;;8.10;99.90;;;;;;5071434;28;20138;-70
2022/05/30 04:40:50;;;;;;;4.72;2.45;;;8.10;99.90;;;;;;5070816;28;20131;-69
2022/05/30 04:43:16;;;;;;;7.93;2.70;;;8.20;99.90;;;;;;5070119;28;20055;-69
2022/05/30 04:45:41;;;;;;;5.88;2.72;;;8.20;99.90;;;;;;5070336;28;20052;-69
2022/05/30 04:48:07;;;;;;;8.07;2.40;;;8.30;99.90;;;;;;5071365;28;20616;-69
2022/05/30 04:50:32;;;;;;;5.53;2.65;;;8.30;99.90;;;;;;5070975;28;20591;-69
2022/05/30 04:52:58;;;;;;;10.10;3.15;;;8.40;99.90;;;;;;5069963;28;20125;-69
2022/05/30 04:55:23;;;;;;;7.75;2.90;;;8.40;99.90;;;;;;5071169;28;20059;-69
2022/05/30 04:57:50;;;;;;;4.07;2.25;;;8.40;99.90;;;;;;5071412;28;20037;-69
2022/05/30 05:00:19;;;;;;;10.00;2.60;;;8.50;99.90;;;;;;5070787;28;20074;-69
2022/05/30 05:02:45;;;;;;;4.60;2.58;;;8.60;99.90;;;;;;5071133;28;20037;-69
2022/05/30 05:05:11;;;;;;;4.30;2.50;;;8.70;99.90;;;;;;5071239;28;20119;-69
2022/05/30 05:07:55;;;;;;;4.97;2.22;;;8.80;99.90;;;;;;5070986;28;20037;-69
2022/05/30 05:10:44;;;;;;;6.90;2.70;;;8.90;99.90;;;;;;5071054;28;20039;-69
2022/05/30 05:13:09;;;;;;;5.72;3.20;;;9.00;99.90;;;;;;5040536;28;20084;-69
2022/05/30 05:15:35;;;;;;;4.85;2.20;;;9.10;99.90;;;;;;5071160;28;20071;-69
2022/05/30 05:18:00;;;;;;;4.80;2.47;;;9.10;99.90;;;;;;5069784;28;20465;-69
2022/05/30 05:20:26;;;;;;;4.93;2.20;;;9.20;99.90;;;;;;5072178;28;20036;-69
2022/05/30 05:22:52;;;;;;;5.50;2.30;;;9.20;99.90;;;;;;5056630;28;20093;-69
2022/05/30 05:25:18;;;;;;;7.05;2.50;;;9.20;99.90;;;;;;5074664;28;20036;-69
2022/05/30 05:27:44;;;;;;;5.13;2.42;;;9.10;99.90;;;;;;5074621;28;20047;-69
2022/05/30 05:30:11;;;;;;;6.45;2.60;;;9.20;99.90;;;;;;5072815;28;20028;-69
2022/05/30 05:32:36;;;;;;;4.18;2.00;;;9.10;99.90;;;;;;5074413;28;20052;-69
2022/05/30 05:35:03;;;;;;;4.68;1.85;;;9.10;99.90;;;;;;5074565;28;20032;-70
2022/05/30 05:37:28;;;;;;;7.05;2.17;;;9.10;99.90;;;;;;5073085;28;20056;-69
2022/05/30 05:39:54;;;;;;;8.10;2.10;;;9.10;99.90;;;;;;5073887;28;20040;-71
2022/05/30 05:42:20;;;;;;;6.40;2.10;;;9.10;99.90;;;;;;5074133;28;20044;-69
2022/05/30 05:44:45;;;;;;;5.28;2.10;;;9.20;99.90;;;;;;5074256;28;20108;-70
2022/05/30 05:47:11;;;;;;;5.32;2.67;;;9.30;99.90;;;;;;5072719;28;20040;-69
2022/05/30 05:49:37;;;;;;;4.32;2.40;;;9.30;99.90;;;;;;5073885;28;20444;-69
2022/05/30 05:52:03;;;;;;;4.22;2.60;;;9.30;99.90;;;;;;5072495;28;20497;-70
2022/05/30 05:54:31;;;;;;;8.32;3.10;;;9.40;99.90;;;;;;5074159;28;20093;-70
2022/05/30 05:56:57;;;;;;;6.82;3.10;;;9.50;99.90;;;;;;5072971;28;20127;-69
2022/05/30 05:59:23;;;;;;;9.85;3.17;;;9.70;99.90;;;;;;5072914;28;20123;-69
2022/05/30 06:01:48;;;;;;;5.85;2.97;;;10.10;99.90;;;;;;5073438;28;20032;-69
2022/05/30 06:04:14;;;;;;;6.85;4.05;;;10.50;99.90;;;;;;5072481;28;20473;-70
2022/05/30 06:06:39;;;;;;;5.40;2.72;;;11.00;99.90;;;;;;5074005;28;20037;-69
2022/05/30 06:09:06;;;;;;;4.55;2.40;;;10.90;99.90;;;;;;5072371;28;20123;-70
2022/05/30 06:11:33;;;;;;;3.60;2.47;;;10.80;99.90;;;;;;5073350;28;20040;-70
2022/05/30 06:13:58;;;;;;;5.57;2.38;;;10.70;99.90;;;;;;5073694;28;20041;-70
2022/05/30 06:16:32;;;;;;;6.72;2.65;;;10.60;99.90;;;;;;5073571;28;20042;-70
2022/05/30 06:19:01;;;;;;;5.30;2.45;;;10.60;99.90;;;;;;5072477;28;20052;-70
2022/05/30 06:21:29;;;;;;;6.95;2.67;;;10.60;99.90;;;;;;5073279;28;20040;-70
2022/05/30 06:23:55;;;;;;;2.95;2.10;;;10.60;99.90;;;;;;5073538;28;20087;-70
2022/05/30 06:26:22;;;;;;;4.40;2.40;;;10.60;99.90;;;;;;5072089;28;20041;-70
2022/05/30 06:28:48;;;;;;;5.85;2.20;;;10.60;99.90;;;;;;5073236;28;20085;-70
2022/05/30 06:31:19;;;;;;;4.63;2.40;;;10.60;99.90;;;;;;5072654;28;20036;-70
2022/05/30 06:33:45;;;;;;;2.08;1.85;;;10.70;99.90;;;;;;5071983;28;20043;-70
2022/05/30 06:36:14;;;;;;;4.72;1.70;;;10.80;99.90;;;;;;5071927;28;20041;-70
2022/05/30 06:38:40;;;;;;;4.47;2.00;;;10.90;99.90;;;;;;5073131;28;20045;-70
2022/05/30 06:41:20;;;;;;;2.75;1.67;;;10.90;99.90;;;;;;5072590;28;20040;-70
2022/05/30 06:43:46;;;;;;;6.88;1.50;;;11.00;99.90;;;;;;5071697;28;20072;-70
2022/05/30 06:46:13;;;;;;;3.90;2.00;;;11.00;99.90;;;;;;5055090;28;20040;-70
2022/05/30 06:48:39;;;;;;;5.82;1.50;;;11.00;99.90;;;;;;5071602;28;20055;-70
2022/05/30 06:51:07;;;;;;;5.95;1.73;;;10.90;99.90;;;;;;5072504;28;20442;-70
2022/05/30 06:53:33;;;;;;;4.35;1.52;;;11.00;99.90;;;;;;5071870;28;20418;-70
2022/05/30 06:56:00;;;;;;;6.63;1.83;;;11.10;99.90;;;;;;5072767;28;20039;-70
2022/05/30 06:58:26;;;;;;;2.60;1.55;;;11.10;99.90;;;;;;5072751;28;20037;-69
2022/05/30 07:00:52;;;;;;;2.88;1.55;;;11.00;99.90;;;;;;5072552;28;20712;-69
2022/05/30 07:03:18;;;;;;;4.07;1.63;;;10.90;99.90;;;;;;5072843;28;20111;-69
2022/05/30 07:05:45;;;;;;;2.58;1.77;;;11.00;99.90;;;;;;5072245;28;20044;-69
2022/05/30 07:08:12;;;;;;;4.13;1.67;;;11.00;99.90;;;;;;5071208;28;20124;-69
2022/05/30 07:10:39;;;;;;;5.00;1.40;;;11.00;99.90;;;;;;5072153;28;20036;-69
2022/05/30 07:13:05;;;;;;;2.28;1.10;;;11.20;99.90;;;;;;5072638;28;20111;-69
2022/05/30 07:15:35;;;;;;;2.55;1.25;;;11.20;99.90;;;;;;5072566;28;20036;-69
2022/05/30 07:18:07;;;;;;;4.43;1.00;;;11.20;99.90;;;;;;5072503;28;20090;-69
2022/05/30 07:20:33;;;;;;;2.72;1.15;;;11.30;99.90;;;;;;5072097;28;20047;-69
2022/05/30 07:22:59;;;;;;;4.40;1.00;;;11.50;99.90;;;;;;5072239;28;20041;-69
2022/05/30 07:25:25;;;;;;;3.55;2.05;;;11.70;99.90;;;;;;5072055;28;20701;-69
2022/05/30 07:27:50;;;;;;;2.13;0.88;;;11.80;99.90;;;;;;5072048;28;20044;-69
2022/05/30 07:30:16;;;;;;;2.72;1.20;;;11.80;99.90;;;;;;5071881;28;20037;-69
2022/05/30 07:32:42;;;;;;;2.78;1.10;;;11.80;99.90;;;;;;5072217;28;20036;-69
2022/05/30 07:35:07;;;;;;;6.60;1.00;;;11.70;99.90;;;;;;5072153;28;20116;-70
2022/05/30 07:37:33;;;;;;;2.90;1.00;;;11.80;99.90;;;;;;5071969;28;20072;-70
2022/05/30 07:39:59;;;;;;;2.10;1.20;;;11.90;99.90;;;;;;5071505;28;20039;-69
2022/05/30 07:42:24;;;;;;;2.58;1.00;;;11.90;99.90;;;;;;5071910;28;20032;-69
2022/05/30 07:44:50;;;;;;;5.53;1.25;;;12.00;99.90;;;;;;5072141;28;20460;-69
2022/05/30 07:47:17;;;;;;;3.78;1.08;;;12.20;99.90;;;;;;5071965;28;20433;-69
2022/05/30 07:49:44;;;;;;;2.42;0.80;;;12.30;99.90;;;;;;5071894;28;20040;-69
2022/05/30 07:52:10;;;;;;;3.85;0.90;;;12.30;99.90;;;;;;5071625;28;20036;-69
2022/05/30 07:54:35;;;;;;;3.95;1.33;;;12.30;99.90;;;;;;5071394;28;20058;-69
2022/05/30 07:57:04;;;;;;;3.20;0.90;;;12.40;99.90;;;;;;5071572;28;20053;-69
2022/05/30 07:59:30;;;;;;;2.10;0.95;;;12.30;99.90;;;;;;5069800;28;20044;-69
2022/05/30 08:01:57;;;;;;;2.42;0.75;;;12.10;99.90;;;;;;5070715;28;20040;-69
2022/05/30 08:04:23;;;;;;;1.17;0.40;;;11.90;99.90;;;;;;5071393;28;20472;-69
2022/05/30 08:06:48;;;;;;;2.55;0.60;;;11.80;99.90;;;;;;5070342;28;20036;-69
2022/05/30 08:09:14;;;;;;;0.47;0.40;;;11.60;99.90;;;;;;5071557;28;20041;-70
2022/05/30 08:11:39;;;;;;;2.05;0.60;;;11.60;99.90;;;;;;5071502;28;20529;-70
2022/05/30 08:14:07;;;;;;;2.42;0.70;;;11.50;99.90;;;;;;5071669;28;20098;-70
2022/05/30 08:16:37;;;;;;;2.17;0.70;;;11.50;99.90;;;;;;5070059;28;20494;-69
2022/05/30 08:19:07;;;;;;;1.98;0.60;;;11.50;99.90;;;;;;5071155;28;20127;-69
2022/05/30 08:21:33;;;;;;;2.35;0.60;;;11.80;99.90;;;;;;5070983;28;20040;-70
2022/05/30 08:23:58;;;;;;;1.95;0.40;;;11.90;99.90;;;;;;5071811;28;20040;-69
2022/05/30 08:26:24;;;;;;;2.25;0.70;;;11.90;99.90;;;;;;5070211;28;20098;-70
2022/05/30 08:28:50;;;;;;;2.13;0.30;;;12.00;99.90;;;;;;5070195;28;20052;-69
2022/05/30 08:31:16;;;;;;;1.33;0.40;;;11.90;99.90;;;;;;5071184;28;20048;-69
2022/05/30 08:33:43;;;;;;;0.70;0.40;;;12.10;99.90;;;;;;5071450;28;20078;-68
2022/05/30 08:36:10;;;;;;;1.48;0.20;;;12.20;99.90;;;;;;5071261;28;20051;-69
2022/05/30 08:38:37;;;;;;;0.85;0.30;;;12.50;99.90;;;;;;5071356;28;20398;-70
2022/05/30 08:43:51;;;;;;;0.35;0.15;;;12.90;99.90;;;;;;5071358;28;20040;-69
2022/05/30 08:47:14;;;;;;;1.30;0.40;;;13.40;99.90;;;;;;5070015;28;20072;-69
2022/05/30 08:49:50;;;;;;;0.70;0.20;;;14.30;99.90;;;;;;4989691;28;20042;-70
2022/05/30 08:52:35;;;;;;;0.25;0.20;;;14.50;99.90;;;;;;4973600;28;20063;-70
2022/05/30 08:55:19;;;;;;;0.93;0.52;;;14.70;99.90;;;;;;5044889;28;20410;-69
2022/05/30 08:57:51;;;;;;;2.58;0.60;;;14.30;99.90;;;;;;5073898;28;20033;-69
2022/05/30 09:00:35;;;;;;;0.95;0.50;;;14.00;99.90;;;;;;5074749;28;20046;-69
2022/05/30 09:03:14;;;;;;;1.13;0.45;;;13.80;99.90;;;;;;5075004;28;20094;-69
2022/05/30 09:05:51;;;;;;;2.03;0.65;;;13.50;99.90;;;;;;5075184;28;20037;-69
2022/05/30 09:08:33;;;;;;;3.10;0.93;;;13.50;99.90;;;;;;5074981;28;20052;-69
2022/05/30 09:11:25;;;;;;;1.73;0.75;;;13.30;99.90;;;;;;5074641;28;20059;-69
2022/05/30 09:13:52;;;;;;;2.13;0.55;;;12.90;99.90;;;;;;5073500;28;20044;-69
2022/05/30 09:16:29;;;;;;;1.45;0.50;;;12.60;99.90;;;;;;5074856;28;20037;-69
2022/05/30 09:18:57;;;;;;;1.52;0.70;;;12.30;99.90;;;;;;5074638;28;20059;-69
2022/05/30 09:21:26;;;;;;;1.67;0.40;;;12.00;99.90;;;;;;5072802;28;20440;-69
2022/05/30 09:23:52;;;;;;;1.02;0.40;;;12.10;99.90;;;;;;5074532;28;20123;-69
2022/05/30 09:26:37;;;;;;;0.93;0.50;;;12.00;99.90;;;;;;5074463;28;20044;-69
2022/05/30 09:29:36;;;;;;;2.20;0.40;;;12.10;99.90;;;;;;5074575;28;20051;-69
2022/05/30 09:32:19;;;;;;;2.38;1.08;;;12.20;99.90;;;;;;5018446;28;20062;-69
2022/05/30 09:34:49;;;;;;;1.60;0.50;;;12.90;99.90;;;;;;5074692;28;20033;-69
2022/05/30 09:37:33;;;;;;;3.03;0.30;;;13.30;99.90;;;;;;5074446;28;20561;-69
2022/05/30 09:39:59;;;;;;;0.70;0.28;;;13.30;99.90;;;;;;5073959;28;20094;-69
2022/05/30 09:42:34;;;;;;;2.58;0.75;;;13.20;99.90;;;;;;5074375;28;20465;-69
2022/05/30 09:45:08;;;;;;;0.50;0.20;;;13.10;99.90;;;;;;5074179;28;20037;-69
2022/05/30 09:47:36;;;;;;;1.13;0.50;;;12.90;99.90;;;;;;5072837;28;20048;-69
2022/05/30 09:50:15;;;;;;;2.00;0.50;;;12.80;99.90;;;;;;5073906;28;20113;-69
2022/05/30 09:52:41;;;;;;;4.22;0.63;;;12.90;99.90;;;;;;5074144;28;20521;-69
2022/05/30 09:55:34;;;;;;;0.73;0.40;;;13.10;99.90;;;;;;5073545;28;20060;-69
2022/05/30 09:58:00;;;;;;;2.92;0.60;;;13.30;99.90;;;;;;5071519;28;20040;-69
2022/05/30 10:00:29;;;;;;;2.30;0.60;;;13.30;99.90;;;;;;5073680;28;20041;-68
2022/05/30 10:03:11;;;;;;;3.75;0.60;;;13.40;99.90;;;;;;5074050;28;20040;-70
2022/05/30 10:05:38;;;;;;;3.05;0.68;;;13.60;99.90;;;;;;5073127;28;20041;-69
2022/05/30 10:08:29;;;;;;;4.07;0.40;;;13.60;99.90;;;;;;5072494;28;20086;-70
2022/05/30 10:10:56;;;;;;;2.83;0.45;;;13.60;99.90;;;;;;5063844;28;20051;-70
2022/05/30 10:13:42;;;;;;;2.55;0.50;;;13.60;99.90;;;;;;5073146;28;20071;-70
2022/05/30 10:16:12;;;;;;;2.45;0.50;;;13.60;99.90;;;;;;5073339;28;20044;-70
2022/05/30 10:18:43;;;;;;;0.75;0.20;;;13.70;99.90;;;;;;5073161;28;20512;-70
2022/05/30 10:28:15;;;;;;;3.50;0.40;;;13.80;99.90;;;;;;5073023;28;20387;-69
2022/05/30 10:31:03;;;;;;;3.10;0.43;;;13.80;99.90;;;;;;5072882;28;20044;-69
2022/05/30 10:33:38;;;;;;;3.47;0.73;;;13.90;99.90;;;;;;5073401;28;20467;-69
2022/05/30 10:36:25;;;;;;;1.98;0.40;;;13.90;99.90;;;;;;5073172;28;20513;-70
2022/05/30 10:39:26;;;;;;;1.70;0.25;;;14.10;99.90;;;;;;5071858;28;20044;-69
2022/05/30 10:42:02;;;;;;;3.47;0.43;;;14.10;99.90;;;;;;5072669;28;20047;-69
2022/05/30 10:44:41;;;;;;;1.05;0.55;;;14.50;99.90;;;;;;5071601;28;20044;-69
2022/05/30 10:47:19;;;;;;;4.50;1.23;;;14.80;99.90;;;;;;5071595;28;20115;-69
2022/05/30 10:49:52;;;;;;;2.20;0.70;;;14.80;99.90;;;;;;5073083;28;20037;-69
2022/05/30 10:52:39;;;;;;;0.40;0.30;;;14.90;99.80;;;;;;5072476;28;20482;-69
2022/05/30 10:55:10;;;;;;;1.00;0.35;;;14.90;99.20;;;;;;5070963;28;20037;-70
2022/05/30 10:57:44;;;;;;;3.50;0.70;;;14.90;99.30;;;;;;5072559;28;20182;-70
2022/05/30 11:00:19;;;;;;;1.48;0.45;;;14.70;99.30;;;;;;5071438;28;20609;-69
2022/05/30 11:02:59;;;;;;;3.90;0.45;;;14.50;99.10;;;;;;5072610;28;20409;-69
2022/05/30 11:05:35;;;;;;;1.20;0.60;;;14.20;99.60;;;;;;5072751;28;20102;-69
2022/05/30 11:08:12;;;;;;;3.00;0.82;;;13.80;99.90;;;;;;5071266;28;20072;-69
2022/05/30 11:10:59;;;;;;;2.05;0.50;;;13.50;99.90;;;;;;5071044;28;20040;-69
2022/05/30 11:14:06;;;;;;;2.40;0.60;;;13.20;99.90;;;;;;5072368;28;20616;-69
2022/05/30 11:16:45;;;;;;;3.00;0.88;;;13.10;99.90;;;;;;5027579;28;20417;-69
2022/05/30 11:19:23;;;;;;;1.73;0.50;;;12.80;99.90;;;;;;5071929;28;20048;-69
2022/05/30 11:22:09;;;;;;;1.50;0.40;;;12.50;99.90;;;;;;5071927;28;20055;-69
2022/05/30 11:24:37;;;;;;;4.72;0.75;;;12.40;99.90;;;;;;5072253;28;20078;-69
2022/05/30 11:27:14;;;;;;;1.98;0.52;;;12.30;99.90;;;;;;5071992;28;20108;-69
2022/05/30 11:29:47;;;;;;;0.75;0.40;;;12.00;99.90;;;;;;5071941;28;20402;-69
2022/05/30 11:32:30;;;;;;;1.15;0.30;;;11.80;99.90;;;;;;5071939;28;20089;-69
2022/05/30 11:35:32;;;;;;;2.85;0.63;;;11.80;99.90;;;;;;5072072;28;20044;-69
2022/05/30 11:38:16;;;;;;;2.35;0.30;;;11.60;99.90;;;;;;5072177;28;20047;-69
2022/05/30 11:41:00;;;;;;;0.68;0.20;;;11.30;99.90;;;;;;5071686;28;20040;-69
2022/05/30 11:43:33;;;;;;;0.65;0.20;;;11.00;99.90;;;;;;5071651;28;20505;-69
2022/05/30 11:46:31;;;;;;;0.10;0.10;;;10.80;99.90;;;;;;5071750;28;20175;-69
2022/05/30 11:49:12;;;;;;;0.10;0.08;;;10.60;99.90;;;;;;5069368;28;20423;-69
2022/05/30 11:52:12;;;;;;;0.15;0.13;;;10.60;99.90;;;;;;5070109;28;20048;-69
2022/05/30 11:55:16;;;;;;;3.30;0.57;;;10.60;99.90;;;;;;5071396;28;20043;-69
2022/05/30 11:57:59;;;;;;;0.35;0.25;;;10.70;99.90;;;;;;5068759;28;20127;-69
2022/05/30 12:00:37;;;;;;;0.65;0.45;;;10.70;99.90;;;;;;5068763;28;20033;-69
2022/05/30 12:03:16;;;;;;;1.77;0.30;;;10.80;99.90;;;;;;5070020;28;20037;-69
2022/05/30 12:06:10;;;;;;;1.70;0.80;;;11.00;99.90;;;;;;5069310;28;20060;-69
2022/05/30 12:08:35;;;;;;;;;;;11.10;99.90;;;;;;5071633;28;20050;-70
2022/05/30 12:11:22;;;;;;;3.08;0.85;;;11.10;99.90;;;;;;5071112;28;20007;-69
2022/05/30 12:14:00;;;;;;;0.63;0.47;;;11.10;99.90;;;;;;5068271;28;20051;-70
2022/05/30 12:17:02;;;;;;;0.90;0.63;;;11.30;99.90;;;;;;5069416;28;20071;-69
2022/05/30 12:25:36;;;;;;;0.98;0.40;;;11.40;99.90;;;;;;5051729;28;20381;-69
2022/05/30 12:28:40;;;;;;;2.47;0.40;;;11.50;99.90;;;;;;5050172;28;20041;-69
2022/05/30 12:31:07;;;;;;;0.52;0.50;;;11.60;99.90;;;;;;5053246;28;20049;-70
2022/05/30 12:33:33;;;;;;;1.17;0.43;;;11.60;99.90;;;;;;5074271;28;20478;-70
2022/05/30 12:36:10;;;;;;;0.80;0.52;;;11.60;99.90;;;;;;5057635;28;20052;-70
2022/05/30 12:38:49;;;;;;;1.23;0.50;;;11.70;99.90;;;;;;5074462;28;20406;-70
2022/05/30 12:41:18;;;;;;;1.38;0.40;;;11.70;99.90;;;;;;5074956;28;20045;-70
2022/05/30 12:43:45;;;;;;;1.08;0.50;;;11.80;99.90;;;;;;5075461;28;20071;-70
2022/05/30 12:46:15;;;;;;;0.77;0.40;;;11.80;99.90;;;;;;5075287;28;20126;-70
2022/05/30 12:48:57;;;;;;;1.08;0.50;;;12.00;99.90;;;;;;5075249;28;20040;-71
2022/05/30 12:51:37;;;;;;;0.90;0.45;;;12.20;99.90;;;;;;5075035;28;20044;-71
2022/05/30 12:54:02;;;;;;;3.03;0.68;;;12.40;99.90;;;;;;5074535;28;20433;-71
2022/05/30 12:56:37;;;;;;;1.15;0.40;;;12.50;99.90;;;;;;5074967;28;20111;-71
2022/05/30 12:59:02;;;;;;;3.83;0.60;;;12.60;99.90;;;;;;5073791;28;20048;-70
2022/05/30 13:01:43;;;;;;;2.22;0.60;;;12.60;99.90;;;;;;5074790;28;20506;-71
2022/05/30 13:04:15;;;;;;;1.65;0.45;;;12.60;99.90;;;;;;5075115;28;20045;-71
2022/05/30 13:06:57;;;;;;;4.13;0.77;;;12.70;99.90;;;;;;5074955;28;20115;-71
2022/05/30 13:09:36;;;;;;;1.70;0.50;;;12.70;99.90;;;;;;5074799;28;20390;-71
2022/05/30 13:12:51;;;;;;;1.52;0.80;;;12.80;99.90;;;;;;5074668;28;20040;-71
2022/05/30 13:15:38;;;;;;;1.95;1.13;;;13.00;99.90;;;;;;5074791;28;20054;-71
2022/05/30 13:18:13;;;;;;;1.02;0.70;;;13.10;99.90;;;;;;5074555;28;20032;-70
2022/05/30 13:20:51;;;;;;;1.02;0.73;;;13.20;99.90;;;;;;5074026;28;20036;-71
2022/05/30 13:23:34;;;;;;;1.13;0.60;;;13.20;99.90;;;;;;5074768;28;20047;-71
2022/05/30 13:26:00;;;;;;;2.15;0.75;;;13.30;99.90;;;;;;5073699;28;20040;-71
2022/05/30 13:28:31;;;;;;;3.60;0.80;;;13.30;99.90;;;;;;5074164;28;20040;-71
2022/05/30 13:31:00;;;;;;;1.27;0.70;;;13.30;99.90;;;;;;5074304;28;20036;-71
2022/05/30 13:33:41;;;;;;;2.42;0.70;;;13.20;99.90;;;;;;5074271;28;20096;-71
2022/05/30 13:36:15;;;;;;;1.50;0.75;;;13.30;99.90;;;;;;5071732;28;20498;-71
2022/05/30 13:38:43;;;;;;;2.42;0.80;;;13.30;99.90;;;;;;5074566;28;20044;-71
2022/05/30 13:41:26;;;;;;;1.45;0.57;;;13.50;99.90;;;;;;5072008;28;20459;-71